메인 페이지
METAR-TAF:

METAR-TAF

공항 :

베이루트, 레바논

위도: 33-49N, 경도: 035-29E, 고도: 29m

현재 날씨관측

예보는 50분 전, 05:00시(UTC)에 발표되었습니다.
남동3kt풍과 남남동풍을 오가는
온도 14°C
습도 63%
기압 1016 hPa
시정 10km 이상
고도 2600ft 상공 구름 조금
고도 18000ft 상공 구름 보통

METAR: OLBA 200500Z 13003KT 090V160 9999 FEW026 SCT180 14/07 Q1016 NOSIG

시각: 07:50 (05:50 UTC)

예보

예보는 1 시간 50분 전, 04:00시(UTC)에 발표되었습니다.
예보 대상 시간: 20일 06시부터 21일 12시까지 (UTC)
8kt
시정 10km 이상
고도 2600ft 상공 구름 조금
고도 18000ft 상공 구름 보통
전환 중
20일 09시부터 20일 12시까지 (UTC)
북북서10kt
시정: 8000m
고도 2600ft 상공 구름 보통
고도 8000ft 상공 구름 보통
전환 중
21일 03시부터 21일 06시까지 (UTC)
북서8kt
일시적
21일 03시부터 21일 06시까지 (UTC)
이슬비
전환 중
21일 06시부터 21일 09시까지 (UTC)
8kt
고도 2600ft 상공 구름 많음
약한비

TAF: OLBA 200400Z 2006/2112 35008KT 9999 FEW026 SCT180 BECMG 2009/2012 34010KT 8000 SCT026 SCT080 BECMG 2103/2106 32008KT TEMPO 2103/2106 DZ BECMG 2106/2109 28008KT -RA BKN026

4,000개 이상의 공항 관측 자료 및 예보 (METAR 및 TAF 보고).

지도상에서 검색 가능한 기상관측소가 노란 점과 빨간 점으로 표시되어 있습니다.

기상관측소 명을 보려면 표시 위로 마우스를 이동하세요.

날씨 관측과 예보를 보려면 클릭하세요.

지도 변경 : 확대하려면 엑스 표시가 있는 녹색 버튼, 축소하려면 빼기 표시가 있는 녹색 버튼, 다음 페이지의 지도를 보려면 녹색 화살표를 클릭하세요.


METAR-TAF: